ADR51C LJLJ-EKCH
Flight info
| Callsign | ADR51C |
|---|---|
| Flight time | 1h 35m |
| Altitude | 36000 |
| Route | GIMIX DCT SIMBA DCT RUDNO M736 AKOSI DCT MAG DCT NOBRI M726 ROSOK Q296 MONAK |
| Aircraft | A320/M-SDE3FGHIRWY/LB1 |
Departure
| Time | 2026-04-24 15:28 |
|---|---|
| Airport | Ljubljana Jože Pučnik Airport (LJLJ) |
Arrival
| Time | 2026-04-24 17:04 |
|---|---|
| Airport | Copenhagen Kastrup Airport (EKCH) |
| Time | Latitude | Longitude | Altitude | Speed | Heading |
|---|---|---|---|---|---|
| 2026-04-24 14:36 | 46.23027 | 14.45419 | 1259 ft | 0 kts | 36° |
| 2026-04-24 15:17 | 46.23024 | 14.45416 | 1258 ft | 3 kts | 37° |
| 2026-04-24 15:18 | 46.23009 | 14.45397 | 1267 ft | 3 kts | 49° |
| 2026-04-24 15:18 | 46.22997 | 14.45374 | 1258 ft | 3 kts | 67° |
| 2026-04-24 15:18 | 46.22992 | 14.45347 | 1261 ft | 3 kts | 95° |
| 2026-04-24 15:18 | 46.22996 | 14.45324 | 1265 ft | 1 kts | 126° |
| 2026-04-24 15:21 | 46.22995 | 14.45327 | 1264 ft | 1 kts | 126° |
| 2026-04-24 15:21 | 46.22985 | 14.45347 | 1260 ft | 4 kts | 126° |
| 2026-04-24 15:22 | 46.22967 | 14.45383 | 1261 ft | 4 kts | 126° |
| 2026-04-24 15:22 | 46.22945 | 14.45413 | 1263 ft | 4 kts | 162° |
| 2026-04-24 15:22 | 46.22917 | 14.45392 | 1262 ft | 5 kts | 215° |
| 2026-04-24 15:23 | 46.22840 | 14.45320 | 1262 ft | 6 kts | 190° |
| 2026-04-24 15:23 | 46.22758 | 14.45463 | 1257 ft | 18 kts | 127° |
| 2026-04-24 15:23 | 46.22656 | 14.45660 | 1259 ft | 28 kts | 127° |
| 2026-04-24 15:24 | 46.22244 | 14.46465 | 1236 ft | 38 kts | 126° |
| 2026-04-24 15:25 | 46.21965 | 14.47009 | 1223 ft | 43 kts | 127° |
| 2026-04-24 15:25 | 46.21663 | 14.47599 | 1202 ft | 11 kts | 127° |
| 2026-04-24 15:26 | 46.21576 | 14.47552 | 1200 ft | 8 kts | 214° |
| 2026-04-24 15:27 | 46.21563 | 14.47334 | 1207 ft | 21 kts | 305° |
| 2026-04-24 15:27 | 46.22884 | 14.44770 | 1408 ft | 160 kts | 306° |
| 2026-04-24 15:28 | 46.24012 | 14.38755 | 3737 ft | 162 kts | 273° |
| 2026-04-24 15:29 | 46.24194 | 14.35439 | 4729 ft | 179 kts | 275° |
| 2026-04-24 15:30 | 46.24612 | 14.29230 | 6033 ft | 223 kts | 278° |
| 2026-04-24 15:31 | 46.25142 | 14.20744 | 8741 ft | 237 kts | 280° |
| 2026-04-24 15:32 | 46.25946 | 14.10282 | 11727 ft | 255 kts | 295° |
| 2026-04-24 15:33 | 46.31578 | 14.01748 | 12562 ft | 338 kts | 316° |
| 2026-04-24 15:33 | 46.36683 | 13.94305 | 14400 ft | 353 kts | 316° |
| 2026-04-24 15:34 | 46.40171 | 13.89203 | 15524 ft | 360 kts | 317° |
| 2026-04-24 15:35 | 46.45547 | 13.81338 | 17205 ft | 372 kts | 316° |
| 2026-04-24 15:35 | 46.49221 | 13.75951 | 18417 ft | 379 kts | 317° |
| 2026-04-24 15:35 | 46.51168 | 13.73376 | 18928 ft | 380 kts | 324° |
| 2026-04-24 15:36 | 46.52626 | 13.71959 | 19253 ft | 382 kts | 332° |
| 2026-04-24 15:36 | 46.57617 | 13.69312 | 20381 ft | 386 kts | 346° |
| 2026-04-24 15:36 | 46.60231 | 13.68288 | 20857 ft | 391 kts | 345° |
| 2026-04-24 15:37 | 46.62876 | 13.67241 | 21351 ft | 395 kts | 345° |
| 2026-04-24 15:37 | 46.65536 | 13.66176 | 21864 ft | 399 kts | 345° |
| 2026-04-24 15:37 | 46.68228 | 13.65095 | 22359 ft | 402 kts | 345° |
| 2026-04-24 15:37 | 46.70932 | 13.64017 | 22869 ft | 405 kts | 345° |
| 2026-04-24 15:38 | 46.73664 | 13.62929 | 23343 ft | 408 kts | 345° |
| 2026-04-24 15:38 | 46.76419 | 13.61827 | 23755 ft | 412 kts | 345° |
| 2026-04-24 15:38 | 46.79186 | 13.60714 | 24142 ft | 415 kts | 345° |
| 2026-04-24 15:38 | 46.81978 | 13.59593 | 24537 ft | 416 kts | 345° |
| 2026-04-24 15:39 | 46.84776 | 13.58475 | 24979 ft | 417 kts | 345° |
| 2026-04-24 15:39 | 46.87577 | 13.57357 | 25348 ft | 420 kts | 345° |
| 2026-04-24 15:39 | 46.90406 | 13.56228 | 25711 ft | 422 kts | 346° |
| 2026-04-24 15:39 | 46.93247 | 13.55093 | 26103 ft | 424 kts | 345° |
| 2026-04-24 15:40 | 46.96088 | 13.53954 | 26510 ft | 425 kts | 346° |
| 2026-04-24 15:40 | 46.98951 | 13.52801 | 26857 ft | 427 kts | 346° |
| 2026-04-24 15:40 | 47.01820 | 13.51641 | 27221 ft | 429 kts | 346° |
| 2026-04-24 15:40 | 47.04698 | 13.50472 | 27657 ft | 429 kts | 347° |
| 2026-04-24 15:41 | 47.07578 | 13.49305 | 28126 ft | 429 kts | 346° |
| 2026-04-24 15:41 | 47.10457 | 13.48140 | 28500 ft | 431 kts | 346° |
| 2026-04-24 15:41 | 47.13367 | 13.46964 | 28746 ft | 435 kts | 347° |
| 2026-04-24 15:41 | 47.16280 | 13.45787 | 29148 ft | 436 kts | 347° |
| 2026-04-24 15:42 | 47.19207 | 13.44604 | 29584 ft | 435 kts | 347° |
| 2026-04-24 15:42 | 47.22129 | 13.43421 | 29974 ft | 435 kts | 346° |
| 2026-04-24 15:42 | 47.25048 | 13.42240 | 30303 ft | 437 kts | 346° |
| 2026-04-24 15:42 | 47.27983 | 13.41049 | 30666 ft | 437 kts | 346° |
| 2026-04-24 15:43 | 47.30912 | 13.39854 | 31064 ft | 436 kts | 346° |
| 2026-04-24 15:43 | 47.33825 | 13.38660 | 31462 ft | 435 kts | 346° |
| 2026-04-24 15:43 | 47.36738 | 13.37464 | 31883 ft | 434 kts | 346° |
| 2026-04-24 15:43 | 47.39634 | 13.36273 | 32319 ft | 432 kts | 346° |
| 2026-04-24 15:44 | 47.42491 | 13.35097 | 32755 ft | 431 kts | 346° |
| 2026-04-24 15:44 | 47.45378 | 13.33912 | 33202 ft | 429 kts | 346° |
| 2026-04-24 15:44 | 47.48253 | 13.32733 | 33662 ft | 427 kts | 346° |
| 2026-04-24 15:44 | 47.51110 | 13.31565 | 34106 ft | 426 kts | 346° |
| 2026-04-24 15:45 | 47.53969 | 13.30393 | 34481 ft | 425 kts | 346° |
| 2026-04-24 15:45 | 47.56808 | 13.29226 | 34865 ft | 423 kts | 346° |
| 2026-04-24 15:45 | 47.59647 | 13.28058 | 35209 ft | 422 kts | 346° |
| 2026-04-24 15:45 | 47.62479 | 13.26892 | 35544 ft | 421 kts | 346° |
| 2026-04-24 15:46 | 47.65295 | 13.25729 | 35866 ft | 420 kts | 346° |
| 2026-04-24 15:46 | 47.68116 | 13.24562 | 36071 ft | 420 kts | 345° |
| 2026-04-24 15:46 | 47.73785 | 13.22209 | 36106 ft | 425 kts | 345° |
| 2026-04-24 15:47 | 47.79485 | 13.19840 | 36106 ft | 426 kts | 345° |
| 2026-04-24 15:47 | 47.85201 | 13.17459 | 36106 ft | 427 kts | 345° |
| 2026-04-24 15:48 | 47.90921 | 13.15075 | 36106 ft | 427 kts | 345° |
| 2026-04-24 15:48 | 47.96630 | 13.12694 | 36105 ft | 426 kts | 345° |
| 2026-04-24 15:49 | 48.02335 | 13.10301 | 36107 ft | 426 kts | 345° |
| 2026-04-24 15:49 | 48.08040 | 13.07903 | 36108 ft | 426 kts | 345° |
| 2026-04-24 15:50 | 48.13716 | 13.05518 | 36107 ft | 426 kts | 345° |
| 2026-04-24 15:50 | 48.19458 | 13.03093 | 36109 ft | 426 kts | 344° |
| 2026-04-24 15:51 | 48.25161 | 13.00678 | 36108 ft | 426 kts | 345° |
| 2026-04-24 15:51 | 48.30876 | 12.98279 | 36108 ft | 426 kts | 345° |
| 2026-04-24 15:52 | 48.36547 | 12.95896 | 36096 ft | 426 kts | 344° |
| 2026-04-24 15:52 | 48.42259 | 12.93475 | 36097 ft | 427 kts | 344° |
| 2026-04-24 15:53 | 48.47975 | 12.91044 | 36095 ft | 427 kts | 344° |
| 2026-04-24 15:53 | 48.53697 | 12.88631 | 36100 ft | 427 kts | 344° |
| 2026-04-24 15:54 | 48.59431 | 12.86209 | 36112 ft | 427 kts | 344° |
| 2026-04-24 15:54 | 48.65150 | 12.83767 | 36117 ft | 427 kts | 343° |
| 2026-04-24 15:55 | 48.70869 | 12.81326 | 36117 ft | 427 kts | 343° |
| 2026-04-24 15:55 | 48.76593 | 12.78867 | 36119 ft | 427 kts | 343° |
| 2026-04-24 15:56 | 48.82307 | 12.76408 | 36123 ft | 427 kts | 343° |
| 2026-04-24 15:56 | 48.88021 | 12.73956 | 36122 ft | 427 kts | 343° |
| 2026-04-24 15:57 | 48.93734 | 12.71498 | 36122 ft | 427 kts | 343° |
| 2026-04-24 15:57 | 48.99454 | 12.69023 | 36121 ft | 427 kts | 343° |
| 2026-04-24 15:58 | 49.05126 | 12.66564 | 36127 ft | 427 kts | 343° |
| 2026-04-24 15:58 | 49.10833 | 12.64092 | 36128 ft | 426 kts | 343° |
| 2026-04-24 15:59 | 49.16531 | 12.61616 | 36130 ft | 426 kts | 343° |
| 2026-04-24 15:59 | 49.22222 | 12.59128 | 36122 ft | 425 kts | 343° |
| 2026-04-24 16:00 | 49.27920 | 12.56635 | 36122 ft | 425 kts | 343° |
| 2026-04-24 16:00 | 49.33474 | 12.53646 | 36126 ft | 422 kts | 331° |
| 2026-04-24 16:01 | 49.38245 | 12.48483 | 36122 ft | 420 kts | 321° |
| 2026-04-24 16:01 | 49.42822 | 12.42897 | 36113 ft | 421 kts | 321° |
| 2026-04-24 16:02 | 49.47417 | 12.37310 | 36118 ft | 421 kts | 321° |
| 2026-04-24 16:02 | 49.52003 | 12.31719 | 36116 ft | 421 kts | 321° |
| 2026-04-24 16:03 | 49.56582 | 12.26110 | 36132 ft | 420 kts | 321° |
| 2026-04-24 16:03 | 49.61149 | 12.20499 | 36121 ft | 420 kts | 320° |
| 2026-04-24 16:04 | 49.65716 | 12.14871 | 36114 ft | 420 kts | 320° |
| 2026-04-24 16:04 | 49.70618 | 12.10004 | 36110 ft | 422 kts | 335° |
| 2026-04-24 16:05 | 49.76345 | 12.07920 | 36109 ft | 428 kts | 353° |
| 2026-04-24 16:05 | 49.79277 | 12.07573 | 36117 ft | 428 kts | 352° |
| 2026-04-24 16:06 | 49.88177 | 12.06505 | 36117 ft | 428 kts | 352° |
| 2026-04-24 16:07 | 49.97088 | 12.05405 | 36130 ft | 428 kts | 352° |
| 2026-04-24 16:07 | 50.05995 | 12.04297 | 36144 ft | 428 kts | 352° |
| 2026-04-24 16:08 | 50.14899 | 12.03201 | 36149 ft | 428 kts | 352° |
| 2026-04-24 16:09 | 50.23797 | 12.02112 | 36147 ft | 428 kts | 352° |
| 2026-04-24 16:09 | 50.29733 | 12.01374 | 36151 ft | 428 kts | 351° |
| 2026-04-24 16:11 | 50.44612 | 11.99495 | 36148 ft | 429 kts | 351° |
| 2026-04-24 16:11 | 50.50577 | 11.98753 | 36148 ft | 430 kts | 351° |
| 2026-04-24 16:12 | 50.59510 | 11.97634 | 36155 ft | 430 kts | 351° |
| 2026-04-24 16:13 | 50.68458 | 11.96503 | 36153 ft | 430 kts | 351° |
| 2026-04-24 16:14 | 50.80385 | 11.94987 | 36164 ft | 429 kts | 351° |
| 2026-04-24 16:14 | 50.89309 | 11.93844 | 36158 ft | 429 kts | 351° |
| 2026-04-24 16:15 | 50.98219 | 11.92701 | 36172 ft | 429 kts | 351° |
| 2026-04-24 16:16 | 51.07134 | 11.91572 | 36160 ft | 428 kts | 351° |
| 2026-04-24 16:17 | 51.21991 | 11.89645 | 36152 ft | 429 kts | 350° |
| 2026-04-24 16:18 | 51.33862 | 11.88121 | 36149 ft | 429 kts | 350° |
| 2026-04-24 16:19 | 51.42792 | 11.86948 | 36140 ft | 429 kts | 350° |
| 2026-04-24 16:20 | 51.51714 | 11.85765 | 36165 ft | 429 kts | 350° |
| 2026-04-24 16:20 | 51.60647 | 11.84594 | 36157 ft | 429 kts | 350° |
| 2026-04-24 16:21 | 51.69576 | 11.83412 | 36181 ft | 429 kts | 350° |
| 2026-04-24 16:22 | 51.75522 | 11.82626 | 36173 ft | 429 kts | 350° |
| 2026-04-24 16:22 | 51.84434 | 11.81457 | 36159 ft | 428 kts | 350° |
| 2026-04-24 16:23 | 51.90374 | 11.80658 | 36154 ft | 428 kts | 350° |
| 2026-04-24 16:24 | 51.99257 | 11.79463 | 36159 ft | 427 kts | 349° |
| 2026-04-24 16:24 | 52.04182 | 11.78751 | 36150 ft | 427 kts | 348° |
| 2026-04-24 16:25 | 52.10096 | 11.77803 | 36139 ft | 427 kts | 348° |
| 2026-04-24 16:25 | 52.16012 | 11.76841 | 36138 ft | 428 kts | 348° |
| 2026-04-24 16:26 | 52.24897 | 11.75414 | 36149 ft | 428 kts | 348° |
| 2026-04-24 16:27 | 52.33783 | 11.73990 | 36147 ft | 428 kts | 348° |
| 2026-04-24 16:27 | 52.39717 | 11.73054 | 36145 ft | 428 kts | 348° |
| 2026-04-24 16:28 | 52.45640 | 11.72109 | 36152 ft | 428 kts | 348° |
| 2026-04-24 16:28 | 52.54526 | 11.70666 | 36141 ft | 428 kts | 348° |
| 2026-04-24 16:29 | 52.60408 | 11.69717 | 36139 ft | 428 kts | 348° |
| 2026-04-24 16:30 | 52.72255 | 11.67807 | 36158 ft | 427 kts | 348° |
| 2026-04-24 16:30 | 52.78174 | 11.66845 | 36145 ft | 427 kts | 348° |
| 2026-04-24 16:31 | 52.84089 | 11.65882 | 36145 ft | 427 kts | 348° |
| 2026-04-24 16:31 | 52.90007 | 11.64913 | 36117 ft | 428 kts | 348° |
| 2026-04-24 16:32 | 52.95955 | 11.64006 | 36117 ft | 432 kts | 354° |
| 2026-04-24 16:32 | 53.02000 | 11.65519 | 36111 ft | 442 kts | 5° |
| 2026-04-24 16:33 | 53.08031 | 11.67490 | 36108 ft | 443 kts | 5° |
| 2026-04-24 16:33 | 53.14087 | 11.69500 | 36117 ft | 443 kts | 5° |
| 2026-04-24 16:34 | 53.20135 | 11.71498 | 36143 ft | 443 kts | 5° |
| 2026-04-24 16:34 | 53.26182 | 11.73483 | 36135 ft | 443 kts | 5° |
| 2026-04-24 16:35 | 53.32227 | 11.75468 | 36131 ft | 443 kts | 5° |
| 2026-04-24 16:35 | 53.38281 | 11.77480 | 36119 ft | 443 kts | 5° |
| 2026-04-24 16:36 | 53.44280 | 11.79483 | 36025 ft | 441 kts | 5° |
| 2026-04-24 16:36 | 53.47319 | 11.80498 | 35483 ft | 440 kts | 5° |
| 2026-04-24 16:36 | 53.50289 | 11.81489 | 34994 ft | 441 kts | 5° |
| 2026-04-24 16:37 | 53.53345 | 11.82508 | 34501 ft | 442 kts | 5° |
| 2026-04-24 16:37 | 53.56314 | 11.83500 | 34018 ft | 442 kts | 5° |
| 2026-04-24 16:37 | 53.59339 | 11.84513 | 33469 ft | 443 kts | 5° |
| 2026-04-24 16:37 | 53.62360 | 11.85525 | 32931 ft | 444 kts | 5° |
| 2026-04-24 16:38 | 53.65399 | 11.86543 | 32406 ft | 445 kts | 5° |
| 2026-04-24 16:38 | 53.68441 | 11.87563 | 31907 ft | 445 kts | 5° |
| 2026-04-24 16:38 | 53.71475 | 11.88582 | 31403 ft | 446 kts | 5° |
| 2026-04-24 16:38 | 53.74523 | 11.89609 | 30894 ft | 446 kts | 6° |
| 2026-04-24 16:39 | 53.77550 | 11.90635 | 30402 ft | 443 kts | 6° |
| 2026-04-24 16:39 | 53.80567 | 11.91657 | 29883 ft | 440 kts | 6° |
| 2026-04-24 16:39 | 53.83559 | 11.92672 | 29319 ft | 436 kts | 6° |
| 2026-04-24 16:39 | 53.86513 | 11.93677 | 28760 ft | 432 kts | 6° |
| 2026-04-24 16:40 | 53.89449 | 11.94678 | 28223 ft | 428 kts | 6° |
| 2026-04-24 16:40 | 53.92355 | 11.95671 | 27719 ft | 423 kts | 5° |
| 2026-04-24 16:40 | 53.95219 | 11.96649 | 27195 ft | 419 kts | 5° |
| 2026-04-24 16:40 | 53.98066 | 11.97620 | 26682 ft | 415 kts | 5° |
| 2026-04-24 16:41 | 54.00886 | 11.98582 | 26177 ft | 411 kts | 5° |
| 2026-04-24 16:41 | 54.03674 | 11.99534 | 25683 ft | 408 kts | 6° |
| 2026-04-24 16:41 | 54.06448 | 12.00484 | 25192 ft | 404 kts | 6° |
| 2026-04-24 16:41 | 54.09190 | 12.01425 | 24715 ft | 401 kts | 6° |
| 2026-04-24 16:42 | 54.11918 | 12.02365 | 24244 ft | 398 kts | 6° |
| 2026-04-24 16:42 | 54.14625 | 12.03294 | 23779 ft | 395 kts | 6° |
| 2026-04-24 16:42 | 54.17302 | 12.04215 | 23285 ft | 392 kts | 6° |
| 2026-04-24 16:42 | 54.19965 | 12.05134 | 22742 ft | 388 kts | 6° |
| 2026-04-24 16:43 | 54.22598 | 12.06042 | 22214 ft | 386 kts | 6° |
| 2026-04-24 16:43 | 54.25224 | 12.06946 | 21682 ft | 383 kts | 6° |
| 2026-04-24 16:43 | 54.27800 | 12.07835 | 21177 ft | 381 kts | 6° |
| 2026-04-24 16:43 | 54.30431 | 12.08746 | 20662 ft | 379 kts | 6° |
| 2026-04-24 16:44 | 54.33008 | 12.09639 | 20198 ft | 376 kts | 6° |
| 2026-04-24 16:44 | 54.35513 | 12.10513 | 20031 ft | 371 kts | 6° |
| 2026-04-24 16:44 | 54.38080 | 12.11405 | 20052 ft | 371 kts | 6° |
| 2026-04-24 16:44 | 54.40575 | 12.12275 | 20073 ft | 372 kts | 7° |
| 2026-04-24 16:45 | 54.43117 | 12.13210 | 20054 ft | 374 kts | 7° |
| 2026-04-24 16:45 | 54.45671 | 12.14151 | 20050 ft | 382 kts | 7° |
| 2026-04-24 16:45 | 54.48328 | 12.15091 | 20049 ft | 394 kts | 6° |
| 2026-04-24 16:45 | 54.51030 | 12.16024 | 20049 ft | 397 kts | 6° |
| 2026-04-24 16:46 | 54.53736 | 12.16952 | 20049 ft | 398 kts | 6° |
| 2026-04-24 16:46 | 54.56451 | 12.17889 | 20043 ft | 398 kts | 6° |
| 2026-04-24 16:46 | 54.59158 | 12.18833 | 20043 ft | 398 kts | 7° |
| 2026-04-24 16:46 | 54.61874 | 12.19787 | 20043 ft | 398 kts | 7° |
| 2026-04-24 16:47 | 54.64589 | 12.20744 | 20043 ft | 398 kts | 7° |
| 2026-04-24 16:47 | 54.67301 | 12.21700 | 20041 ft | 397 kts | 6° |
| 2026-04-24 16:47 | 54.69997 | 12.22647 | 20040 ft | 396 kts | 6° |
| 2026-04-24 16:47 | 54.72701 | 12.23598 | 20042 ft | 396 kts | 6° |
| 2026-04-24 16:48 | 54.75395 | 12.24552 | 20038 ft | 396 kts | 6° |
| 2026-04-24 16:48 | 54.78100 | 12.25512 | 20039 ft | 396 kts | 6° |
| 2026-04-24 16:48 | 54.80804 | 12.26472 | 20040 ft | 396 kts | 6° |
| 2026-04-24 16:48 | 54.83498 | 12.27433 | 20040 ft | 395 kts | 6° |
| 2026-04-24 16:49 | 54.86146 | 12.28384 | 19761 ft | 384 kts | 6° |
| 2026-04-24 16:49 | 54.88766 | 12.29318 | 19093 ft | 386 kts | 6° |
| 2026-04-24 16:49 | 54.91359 | 12.30236 | 18567 ft | 384 kts | 6° |
| 2026-04-24 16:49 | 54.93952 | 12.31377 | 18008 ft | 387 kts | 14° |
| 2026-04-24 16:50 | 54.95615 | 12.32678 | 17618 ft | 390 kts | 23° |
| 2026-04-24 16:50 | 54.98628 | 12.36103 | 16867 ft | 389 kts | 28° |
| 2026-04-24 16:50 | 55.00892 | 12.38774 | 16288 ft | 386 kts | 28° |
| 2026-04-24 16:50 | 55.03070 | 12.41336 | 15748 ft | 382 kts | 28° |
| 2026-04-24 16:51 | 55.05264 | 12.43909 | 15187 ft | 378 kts | 28° |
| 2026-04-24 16:51 | 55.07438 | 12.46454 | 14613 ft | 374 kts | 28° |
| 2026-04-24 16:51 | 55.09585 | 12.48964 | 14052 ft | 370 kts | 28° |
| 2026-04-24 16:51 | 55.11719 | 12.51456 | 13447 ft | 367 kts | 28° |
| 2026-04-24 16:52 | 55.13830 | 12.53925 | 12839 ft | 363 kts | 28° |
| 2026-04-24 16:52 | 55.15902 | 12.56354 | 12468 ft | 353 kts | 28° |
| 2026-04-24 16:52 | 55.17894 | 12.58706 | 12338 ft | 337 kts | 28° |
| 2026-04-24 16:52 | 55.19791 | 12.60953 | 12206 ft | 323 kts | 28° |
| 2026-04-24 16:53 | 55.21620 | 12.63116 | 12077 ft | 311 kts | 27° |
| 2026-04-24 16:53 | 55.23429 | 12.65009 | 11937 ft | 294 kts | 18° |
| 2026-04-24 16:53 | 55.25311 | 12.66179 | 11667 ft | 285 kts | 12° |
| 2026-04-24 16:53 | 55.27193 | 12.67237 | 11316 ft | 283 kts | 12° |
| 2026-04-24 16:54 | 55.29056 | 12.68288 | 10984 ft | 281 kts | 12° |
| 2026-04-24 16:54 | 55.30912 | 12.69342 | 10631 ft | 279 kts | 13° |
| 2026-04-24 16:54 | 55.32757 | 12.70394 | 10293 ft | 278 kts | 13° |
| 2026-04-24 16:54 | 55.34584 | 12.71436 | 9954 ft | 276 kts | 13° |
| 2026-04-24 16:55 | 55.36409 | 12.72476 | 9592 ft | 275 kts | 13° |
| 2026-04-24 16:55 | 55.38224 | 12.73509 | 9217 ft | 273 kts | 13° |
| 2026-04-24 16:55 | 55.40023 | 12.74537 | 8854 ft | 272 kts | 13° |
| 2026-04-24 16:55 | 55.41821 | 12.75568 | 8492 ft | 271 kts | 13° |
| 2026-04-24 16:56 | 55.43594 | 12.76589 | 7981 ft | 267 kts | 13° |
| 2026-04-24 16:56 | 55.45336 | 12.77595 | 7663 ft | 263 kts | 13° |
| 2026-04-24 16:56 | 55.47077 | 12.78596 | 7401 ft | 263 kts | 13° |
| 2026-04-24 16:56 | 55.48810 | 12.79590 | 7134 ft | 262 kts | 13° |
| 2026-04-24 16:57 | 55.50541 | 12.80583 | 6873 ft | 261 kts | 13° |
| 2026-04-24 16:57 | 55.52265 | 12.81573 | 6621 ft | 261 kts | 13° |
| 2026-04-24 16:57 | 55.53983 | 12.82561 | 6358 ft | 259 kts | 13° |
| 2026-04-24 16:57 | 55.55657 | 12.83532 | 5820 ft | 255 kts | 14° |
| 2026-04-24 16:58 | 55.57326 | 12.84620 | 5185 ft | 255 kts | 17° |
| 2026-04-24 16:58 | 55.58986 | 12.85811 | 4562 ft | 254 kts | 18° |
| 2026-04-24 16:58 | 55.60614 | 12.87010 | 3952 ft | 252 kts | 18° |
| 2026-04-24 16:58 | 55.62189 | 12.88216 | 3597 ft | 243 kts | 22° |
| 2026-04-24 16:59 | 55.63540 | 12.89856 | 3480 ft | 230 kts | 35° |
| 2026-04-24 16:59 | 55.64775 | 12.91411 | 3268 ft | 208 kts | 14° |
| 2026-04-24 16:59 | 55.67382 | 12.91168 | 2958 ft | 180 kts | 331° |
| 2026-04-24 17:00 | 55.68362 | 12.89913 | 2807 ft | 171 kts | 313° |
| 2026-04-24 17:00 | 55.69311 | 12.86145 | 2297 ft | 172 kts | 284° |
| 2026-04-24 17:00 | 55.69500 | 12.84054 | 2225 ft | 173 kts | 284° |
| 2026-04-24 17:01 | 55.69891 | 12.79823 | 2071 ft | 175 kts | 280° |
| 2026-04-24 17:01 | 55.69584 | 12.77740 | 1895 ft | 186 kts | 237° |
| 2026-04-24 17:02 | 55.68026 | 12.75326 | 1495 ft | 163 kts | 228° |
| 2026-04-24 17:02 | 55.66961 | 12.73648 | 1202 ft | 147 kts | 228° |
| 2026-04-24 17:02 | 55.66214 | 12.72478 | 1011 ft | 141 kts | 229° |
| 2026-04-24 17:02 | 55.65483 | 12.71337 | 821 ft | 141 kts | 228° |
| 2026-04-24 17:03 | 55.64022 | 12.69063 | 453 ft | 139 kts | 227° |
| 2026-04-24 17:03 | 55.63312 | 12.67954 | 271 ft | 136 kts | 225° |
| 2026-04-24 17:03 | 55.62602 | 12.66845 | 80 ft | 137 kts | 227° |
| 2026-04-24 17:04 | 55.61952 | 12.65832 | 26 ft | 106 kts | 220° |
| 2026-04-24 17:04 | 55.61372 | 12.64944 | 27 ft | 22 kts | 223° |
| 2026-04-24 17:04 | 55.61288 | 12.64738 | 27 ft | 21 kts | 244° |
| 2026-04-24 17:05 | 55.61229 | 12.64477 | 24 ft | 23 kts | 251° |
| 2026-04-24 17:05 | 55.61193 | 12.64277 | 24 ft | 10 kts | 252° |
| 2026-04-24 17:05 | 55.61285 | 12.64120 | 24 ft | 14 kts | 18° |
| 2026-04-24 17:06 | 55.61379 | 12.64223 | 24 ft | 17 kts | 33° |
| 2026-04-24 17:06 | 55.61611 | 12.64489 | 24 ft | 23 kts | 32° |
| 2026-04-24 17:06 | 55.61752 | 12.64652 | 25 ft | 26 kts | 33° |
| 2026-04-24 17:07 | 55.61857 | 12.64771 | 24 ft | 27 kts | 33° |
| 2026-04-24 17:07 | 55.62007 | 12.64948 | 24 ft | 15 kts | 34° |
| 2026-04-24 17:07 | 55.62191 | 12.65158 | 24 ft | 16 kts | 33° |
| 2026-04-24 17:08 | 55.62296 | 12.65027 | 25 ft | 12 kts | 302° |
| 2026-04-24 17:08 | 55.62344 | 12.64895 | 24 ft | 14 kts | 303° |
| 2026-04-24 17:08 | 55.62398 | 12.64746 | 24 ft | 15 kts | 303° |
| 2026-04-24 17:09 | 55.62528 | 12.64399 | 25 ft | 18 kts | 303° |
| 2026-04-24 17:09 | 55.62628 | 12.64281 | 25 ft | 6 kts | 31° |
| 2026-04-24 17:10 | 55.62671 | 12.64317 | 24 ft | 7 kts | 23° |
| 2026-04-24 17:10 | 55.62749 | 12.64360 | 24 ft | 1 kts | 309° |
| 2026-04-24 17:11 | 55.62765 | 12.64309 | 24 ft | 0 kts | 297° |